Time;durP1;ratioP1;P1;durP2;ratioP2;P2;SDS_P1;SDS_P2;PMS_P1;PMS_P2;Temp;Humidity;BMP_temperature;BMP_pressure;BME280_temperature;BME280_humidity;BME280_pressure;Samples;Min_cycle;Max_cycle;Signal;HPM_P1;HPM_P2
2024/01/03 00:01:28;;;;;;;1.30;0.80;;;;;;;9.38;75.21;94592.66;5066355;28;20462;-68
2024/01/03 00:03:54;;;;;;;1.00;0.70;;;;;;;9.46;74.11;94593.00;5078567;28;20487;-68
2024/01/03 00:06:20;;;;;;;1.20;0.90;;;;;;;9.43;74.63;94607.13;5085949;28;20517;-66
2024/01/03 00:08:45;;;;;;;1.20;0.80;;;;;;;9.46;74.32;94596.44;5086193;28;20419;-67
2024/01/03 00:11:20;;;;;;;1.00;0.70;;;;;;;9.32;74.50;94581.69;5086462;28;20169;-67
2024/01/03 00:13:54;;;;;;;1.23;0.80;;;;;;;9.31;74.59;94595.72;5086210;28;20260;-67
2024/01/03 00:16:22;;;;;;;1.10;0.80;;;;;;;9.41;74.99;94584.63;5087547;28;20419;-67
2024/01/03 00:18:58;;;;;;;1.00;0.80;;;;;;;9.31;75.14;94587.88;5088474;28;20727;-67
2024/01/03 00:21:28;;;;;;;1.20;0.90;;;;;;;9.32;75.90;94591.31;5087281;28;20490;-68
2024/01/03 00:24:09;;;;;;;1.13;0.87;;;;;;;9.27;75.92;94596.84;5087092;28;20423;-66
2024/01/03 00:26:36;;;;;;;1.40;0.70;;;;;;;9.22;76.09;94590.28;5087405;28;20517;-68
2024/01/03 00:29:03;;;;;;;1.10;0.80;;;;;;;9.26;75.83;94596.94;5087943;28;21006;-68
2024/01/03 00:31:46;;;;;;;2.00;0.80;;;;;;;9.24;76.22;94601.47;5086785;28;20426;-68
2024/01/03 00:34:26;;;;;;;2.00;0.80;;;;;;;9.22;76.01;94612.03;5086780;27;20419;-67
2024/01/03 00:36:55;;;;;;;2.17;1.00;;;;;;;9.18;76.26;94622.81;5086261;28;20483;-70
2024/01/03 00:39:33;;;;;;;1.37;0.80;;;;;;;9.20;76.43;94631.41;5085288;28;20443;-68
2024/01/03 00:41:59;;;;;;;1.10;0.73;;;;;;;9.22;76.22;94638.22;5086170;28;20412;-68
2024/01/03 00:44:24;;;;;;;1.10;0.83;;;;;;;9.19;76.35;94641.03;5085425;28;20423;-68
2024/01/03 00:46:52;;;;;;;1.17;0.90;;;;;;;9.09;76.25;94629.50;5067249;28;20281;-66
2024/01/03 00:49:18;;;;;;;1.90;0.67;;;;;;;9.16;76.33;94629.94;5064905;28;20169;-69
2024/01/03 00:51:47;;;;;;;1.20;0.80;;;;;;;9.24;75.33;94636.34;5065276;28;20400;-68
2024/01/03 00:54:13;;;;;;;0.90;0.70;;;;;;;9.15;75.64;94650.03;5065851;28;20787;-66
2024/01/03 00:56:38;;;;;;;1.10;0.60;;;;;;;9.14;75.70;94635.25;5065580;28;20396;-67
2024/01/03 00:59:04;;;;;;;0.90;0.70;;;;;;;9.20;75.80;94639.25;5065059;28;20174;-68
2024/01/03 01:01:29;;;;;;;1.33;0.70;;;;;;;9.24;75.00;94643.34;5065112;28;20220;-68
2024/01/03 01:03:54;;;;;;;2.60;0.80;;;;;;;9.23;75.71;94644.28;5077993;28;20173;-67
2024/01/03 01:06:20;;;;;;;1.83;0.87;;;;;;;9.21;75.43;94646.16;5084585;28;20235;-67
2024/01/03 01:08:45;;;;;;;0.90;0.70;;;;;;;9.32;75.36;94646.28;5085563;28;20169;-68
2024/01/03 01:11:10;;;;;;;1.43;0.80;;;;;;;9.18;75.71;94652.44;5085141;28;20173;-66
2024/01/03 01:13:36;;;;;;;1.10;0.80;;;;;;;9.16;75.98;94656.94;5085330;28;20177;-67
2024/01/03 01:16:01;;;;;;;1.30;0.80;;;;;;;9.22;76.38;94655.69;5085272;28;20265;-68
2024/01/03 01:18:27;;;;;;;1.10;0.80;;;;;;;9.27;76.09;94657.06;5085127;28;20630;-68
2024/01/03 01:20:52;;;;;;;1.00;0.70;;;;;;;9.17;76.77;94668.25;5085037;28;20169;-68
2024/01/03 01:23:17;;;;;;;1.10;0.70;;;;;;;9.12;77.37;94665.94;5085432;28;20165;-68
2024/01/03 01:25:43;;;;;;;1.30;0.90;;;;;;;9.11;77.77;94665.09;5084944;28;20266;-66
2024/01/03 01:28:08;;;;;;;2.17;0.90;;;;;;;9.09;78.09;94663.50;5085298;28;20181;-68
2024/01/03 01:30:33;;;;;;;3.80;0.93;;;;;;;9.11;77.89;94679.94;5084944;28;20177;-68
2024/01/03 01:32:59;;;;;;;1.23;0.80;;;;;;;9.15;77.58;94665.72;5085378;28;20980;-68
2024/01/03 01:35:24;;;;;;;0.90;0.70;;;;;;;9.18;76.94;94662.91;5084813;28;20219;-68
2024/01/03 01:37:50;;;;;;;2.73;1.10;;;;;;;9.24;76.73;94672.97;5085152;28;20192;-66
2024/01/03 01:40:15;;;;;;;1.67;0.87;;;;;;;9.21;77.15;94670.56;5084629;28;20234;-68
2024/01/03 01:42:42;;;;;;;1.63;0.80;;;;;;;9.20;77.19;94666.25;5084813;28;20173;-67
2024/01/03 01:45:08;;;;;;;1.53;0.80;;;;;;;9.15;77.77;94672.75;5081723;28;20190;-68
2024/01/03 01:47:33;;;;;;;1.30;0.77;;;;;;;9.11;77.84;94678.16;5064993;28;20490;-66
2024/01/03 01:49:59;;;;;;;1.53;1.00;;;;;;;9.11;77.82;94675.53;5064796;28;20420;-67
2024/01/03 01:52:25;;;;;;;2.00;1.00;;;;;;;9.10;78.83;94679.13;5065382;28;20569;-66
2024/01/03 01:54:51;;;;;;;5.23;1.20;;;;;;;9.13;78.69;94683.31;5064858;28;20435;-67
2024/01/03 01:57:18;;;;;;;2.33;1.27;;;;;;;9.10;78.90;94681.75;5064890;28;20166;-69
2024/01/03 01:59:43;;;;;;;1.10;0.80;;;;;;;9.00;79.88;94685.91;5064548;28;20174;-69
2024/01/03 02:02:11;;;;;;;3.20;0.90;;;;;;;9.15;79.52;94686.66;5064737;28;20493;-67
2024/01/03 02:04:37;;;;;;;1.17;0.70;;;;;;;9.13;78.97;94690.31;5083260;28;20189;-66
2024/01/03 02:07:04;;;;;;;2.10;0.90;;;;;;;9.16;79.35;94697.97;5084530;28;20517;-67
2024/01/03 02:09:30;;;;;;;3.53;0.80;;;;;;;9.11;79.02;94683.41;5085279;28;20428;-66
2024/01/03 02:11:55;;;;;;;1.10;0.70;;;;;;;9.19;78.42;94690.78;5086806;28;20415;-67
2024/01/03 02:14:21;;;;;;;1.53;1.00;;;;;;;9.14;78.75;94684.16;5086259;28;20178;-69
2024/01/03 02:16:46;;;;;;;1.40;0.90;;;;;;;9.19;78.26;94682.06;5084993;28;20166;-67
2024/01/03 02:19:12;;;;;;;1.20;0.80;;;;;;;9.07;78.89;94681.09;5088508;28;20709;-65
2024/01/03 02:21:37;;;;;;;1.50;0.90;;;;;;;9.14;78.70;94684.97;5089098;28;20170;-67
2024/01/03 02:24:02;;;;;;;1.77;0.90;;;;;;;9.16;78.47;94683.09;5088853;28;20176;-66
2024/01/03 02:26:28;;;;;;;1.90;0.70;;;;;;;9.22;78.07;94687.94;5088204;28;20201;-66
2024/01/03 02:28:53;;;;;;;1.30;0.70;;;;;;;9.22;77.82;94677.47;5088062;28;20177;-66
2024/01/03 02:31:18;;;;;;;1.90;0.67;;;;;;;9.32;77.54;94682.94;5088037;28;20212;-65
2024/01/03 02:33:44;;;;;;;1.10;0.70;;;;;;;9.20;78.17;94689.81;5089048;28;20272;-67
2024/01/03 02:36:09;;;;;;;1.40;0.80;;;;;;;9.30;77.37;94684.81;5088473;28;20296;-67
2024/01/03 02:38:34;;;;;;;1.23;0.90;;;;;;;9.17;78.05;94671.72;5087705;28;20196;-67
2024/01/03 02:41:00;;;;;;;2.00;1.10;;;;;;;9.14;77.78;94676.28;5087847;28;20172;-65
2024/01/03 02:43:26;;;;;;;1.20;0.87;;;;;;;9.11;78.28;94669.47;5088538;28;20169;-67
2024/01/03 02:45:51;;;;;;;1.00;0.80;;;;;;;9.24;77.40;94664.28;5078654;28;20202;-65
2024/01/03 02:48:17;;;;;;;1.00;0.70;;;;;;;9.26;77.37;94663.25;5067902;28;20412;-67
2024/01/03 02:50:47;;;;;;;1.57;0.90;;;;;;;9.25;76.91;94655.50;5067599;28;20181;-66
2024/01/03 02:53:13;;;;;;;1.30;0.90;;;;;;;9.26;77.21;94659.78;5066530;28;20213;-68
2024/01/03 02:55:38;;;;;;;1.20;0.80;;;;;;;9.13;77.85;94667.59;5068632;28;21107;-67
2024/01/03 02:58:04;;;;;;;1.00;0.80;;;;;;;9.21;77.15;94654.00;5067929;28;20646;-68
2024/01/03 03:00:29;;;;;;;3.00;1.10;;;;;;;9.19;76.89;94661.97;5068762;28;20221;-67
2024/01/03 03:02:54;;;;;;;2.20;2.00;;;;;;;9.16;77.19;94653.47;5073345;28;20204;-66
2024/01/03 03:05:20;;;;;;;1.00;0.70;;;;;;;9.03;77.96;94661.31;5090188;28;20197;-67
2024/01/03 03:07:45;;;;;;;2.40;0.90;;;;;;;9.14;76.51;94663.22;5099547;28;20376;-67
2024/01/03 03:10:14;;;;;;;1.73;1.10;;;;;;;9.05;77.02;94656.81;5101739;28;20839;-68
2024/01/03 03:12:39;;;;;;;1.60;0.90;;;;;;;8.99;77.75;94660.66;5104597;28;20184;-68
2024/01/03 03:15:05;;;;;;;1.60;1.23;;;;;;;8.97;77.35;94657.31;5096411;28;20420;-68
2024/01/03 03:17:30;;;;;;;1.13;0.80;;;;;;;8.96;76.86;94660.03;5088565;28;20158;-66
2024/01/03 03:19:56;;;;;;;1.47;1.10;;;;;;;8.95;77.02;94667.03;5088616;28;20941;-68
2024/01/03 03:22:21;;;;;;;1.50;1.10;;;;;;;8.90;77.04;94667.34;5088339;28;20166;-67
2024/01/03 03:24:47;;;;;;;1.27;0.90;;;;;;;8.89;77.48;94662.22;5088421;28;20270;-69
2024/01/03 03:27:12;;;;;;;1.10;0.93;;;;;;;9.02;76.50;94657.84;5088359;28;20201;-66
2024/01/03 03:29:37;;;;;;;2.03;1.00;;;;;;;9.02;76.63;94659.63;5088508;28;20219;-66
2024/01/03 03:32:03;;;;;;;1.00;0.80;;;;;;;8.96;76.74;94660.03;5090348;28;20169;-68
2024/01/03 03:34:28;;;;;;;1.20;0.80;;;;;;;8.96;77.13;94668.72;5089036;28;20250;-66
2024/01/03 03:36:54;;;;;;;1.10;1.00;;;;;;;8.98;77.09;94666.84;5088432;28;20165;-67
2024/01/03 03:39:19;;;;;;;1.50;1.07;;;;;;;9.00;76.90;94671.97;5089418;28;20188;-68
2024/01/03 03:41:45;;;;;;;1.20;0.90;;;;;;;8.93;76.63;94661.09;5089015;28;20162;-65
2024/01/03 03:44:10;;;;;;;1.20;0.87;;;;;;;8.90;77.35;94676.97;5088644;28;20254;-67
2024/01/03 03:46:35;;;;;;;4.70;0.90;;;;;;;8.94;76.71;94665.34;5087921;28;20202;-67
2024/01/03 03:49:01;;;;;;;1.97;0.70;;;;;;;8.99;76.78;94660.66;5087759;28;20250;-67
2024/01/03 03:51:26;;;;;;;1.20;0.80;;;;;;;8.99;76.65;94662.44;5087076;28;20166;-65
2024/01/03 03:53:51;;;;;;;1.10;0.83;;;;;;;9.00;76.71;94664.09;5087709;28;20166;-66
2024/01/03 03:56:29;;;;;;;1.83;1.30;;;;;;;8.85;77.05;94668.56;5086989;28;20189;-65
2024/01/03 03:58:55;;;;;;;3.73;1.00;;;;;;;8.92;76.61;94672.47;5087395;28;20185;-67
2024/01/03 04:01:20;;;;;;;5.23;1.30;;;;;;;8.82;76.99;94677.47;5087875;28;20415;-67
2024/01/03 04:03:46;;;;;;;1.60;0.97;;;;;;;8.77;77.19;94673.47;5088457;28;20420;-67
2024/01/03 04:06:15;;;;;;;1.23;1.00;;;;;;;8.92;77.28;94675.09;5087507;28;20374;-67
2024/01/03 04:08:44;;;;;;;1.40;1.10;;;;;;;8.88;76.89;94678.81;5086879;28;20181;-68
2024/01/03 04:11:10;;;;;;;1.70;1.10;;;;;;;8.77;77.03;94681.31;5087073;28;20540;-66
2024/01/03 04:13:38;;;;;;;1.40;1.00;;;;;;;8.83;76.79;94679.13;5087166;28;20396;-66
2024/01/03 04:16:08;;;;;;;1.57;1.10;;;;;;;8.69;78.06;94674.81;5087474;28;20656;-67
2024/01/03 04:18:34;;;;;;;2.20;0.90;;;;;;;8.71;77.72;94677.31;5087438;28;20408;-68
2024/01/03 04:21:00;;;;;;;1.37;0.80;;;;;;;8.73;77.32;94680.66;5086855;28;20509;-67
2024/01/03 04:23:26;;;;;;;1.63;0.87;;;;;;;8.75;77.48;94680.56;5087308;28;20912;-66
2024/01/03 04:25:51;;;;;;;2.77;1.03;;;;;;;8.89;76.64;94686.59;5087932;28;20515;-67
2024/01/03 04:28:16;;;;;;;6.47;1.93;;;;;;;8.80;76.71;94692.41;5087538;28;20205;-68
2024/01/03 04:30:42;;;;;;;4.10;1.20;;;;;;;8.70;77.23;94686.09;5086477;28;20268;-67
2024/01/03 04:33:07;;;;;;;1.53;1.23;;;;;;;8.82;77.38;94689.69;5087249;28;20169;-66
2024/01/03 04:35:32;;;;;;;1.00;0.80;;;;;;;8.80;76.75;94691.56;5086573;28;20200;-66
2024/01/03 04:38:02;;;;;;;1.10;0.90;;;;;;;8.69;77.16;94689.63;5086628;28;20177;-65
2024/01/03 04:40:28;;;;;;;1.10;0.90;;;;;;;8.76;77.46;94690.09;5084965;28;20181;-66
2024/01/03 04:42:54;;;;;;;1.37;1.07;;;;;;;8.82;76.50;94694.94;5087163;28;20475;-65
2024/01/03 04:45:19;;;;;;;1.40;0.93;;;;;;;8.72;77.40;94693.81;5087394;28;20511;-66
2024/01/03 04:47:45;;;;;;;1.10;0.83;;;;;;;8.75;77.24;94696.25;5086921;28;20906;-67
2024/01/03 04:50:10;;;;;;;1.10;0.93;;;;;;;8.76;76.77;94701.38;5086954;28;20230;-66
2024/01/03 04:52:35;;;;;;;1.00;0.80;;;;;;;8.81;77.06;94707.19;5087178;28;20169;-67
2024/01/03 04:55:01;;;;;;;1.10;0.90;;;;;;;8.85;76.46;94702.56;5086606;28;20189;-67
2024/01/03 04:57:26;;;;;;;1.30;1.10;;;;;;;8.84;76.68;94706.97;5086385;28;20161;-66
2024/01/03 04:59:52;;;;;;;1.40;1.03;;;;;;;8.90;76.75;94714.44;5086374;28;20169;-65
2024/01/03 05:02:17;;;;;;;2.60;1.00;;;;;;;8.89;77.06;94709.28;5086380;28;20173;-66
2024/01/03 05:04:42;;;;;;;1.30;1.00;;;;;;;8.87;76.66;94717.22;5086194;28;20327;-66
2024/01/03 05:07:08;;;;;;;1.67;1.07;;;;;;;9.02;75.86;94710.16;5084827;28;20697;-67
2024/01/03 05:09:34;;;;;;;2.70;1.27;;;;;;;8.91;77.03;94710.03;5085740;28;20181;-67
2024/01/03 05:12:00;;;;;;;3.17;0.90;;;;;;;8.88;76.61;94695.38;5086362;28;21022;-67
2024/01/03 05:14:25;;;;;;;3.50;1.00;;;;;;;8.84;76.89;94700.91;5086674;28;20445;-68
2024/01/03 05:16:51;;;;;;;2.13;1.50;;;;;;;8.75;77.32;94709.34;5086061;28;20541;-66
2024/01/03 05:19:16;;;;;;;3.20;1.00;;;;;;;8.82;77.27;94708.00;5086422;28;20212;-67
2024/01/03 05:21:41;;;;;;;1.00;0.80;;;;;;;8.79;77.29;94721.28;5085839;28;20529;-67
2024/01/03 05:24:09;;;;;;;2.10;1.10;;;;;;;8.77;77.93;94726.63;5086129;28;20209;-66
2024/01/03 05:26:35;;;;;;;2.20;1.00;;;;;;;8.80;77.43;94723.78;5085728;28;20727;-66
2024/01/03 05:29:00;;;;;;;3.57;0.90;;;;;;;8.88;77.05;94725.91;5085805;28;20523;-65
2024/01/03 05:31:25;;;;;;;1.27;0.90;;;;;;;8.96;77.32;94728.06;5086326;28;20177;-66
2024/01/03 05:33:51;;;;;;;1.13;1.00;;;;;;;8.82;77.31;94731.56;5085882;28;20563;-66
2024/01/03 05:36:17;;;;;;;2.20;0.80;;;;;;;8.99;77.24;94739.16;5085608;28;20208;-65
2024/01/03 05:38:42;;;;;;;1.20;0.80;;;;;;;8.95;76.66;94723.75;5085715;28;20424;-65
2024/01/03 05:41:07;;;;;;;6.80;1.10;;;;;;;8.89;76.89;94717.97;5085574;28;20678;-68
2024/01/03 05:43:33;;;;;;;1.10;0.77;;;;;;;8.98;76.65;94731.41;5085969;28;20227;-66
2024/01/03 05:45:58;;;;;;;1.57;1.07;;;;;;;9.04;76.65;94733.63;5085483;28;20197;-67
2024/01/03 05:48:23;;;;;;;1.20;0.80;;;;;;;9.10;76.12;94731.47;5086071;28;20194;-67
2024/01/03 05:50:49;;;;;;;1.03;0.73;;;;;;;8.95;76.61;94727.19;5073507;28;20214;-67
2024/01/03 05:53:14;;;;;;;1.80;0.90;;;;;;;8.94;76.58;94729.94;5062554;28;20230;-66
2024/01/03 05:55:39;;;;;;;1.20;0.90;;;;;;;8.91;77.37;94736.19;5049188;28;20218;-66
2024/01/03 05:58:05;;;;;;;2.13;0.90;;;;;;;8.89;77.26;94738.06;5049558;28;20171;-68
2024/01/03 06:00:30;;;;;;;2.17;1.07;;;;;;;8.84;76.99;94729.69;5048930;28;20183;-65
2024/01/03 06:02:56;;;;;;;2.67;0.80;;;;;;;8.85;76.96;94731.34;5053189;28;20213;-66
2024/01/03 06:05:21;;;;;;;1.13;0.80;;;;;;;8.82;76.82;94736.78;5069205;28;20200;-67
2024/01/03 06:07:46;;;;;;;3.20;1.00;;;;;;;8.75;77.72;94735.50;5069160;28;20327;-66
2024/01/03 06:10:12;;;;;;;1.40;0.73;;;;;;;8.80;77.11;94742.09;5069105;28;20808;-65
2024/01/03 06:12:39;;;;;;;1.63;0.90;;;;;;;8.85;76.93;94758.34;5069019;28;20250;-66
2024/01/03 06:15:06;;;;;;;2.33;1.27;;;;;;;8.78;77.22;94761.44;5068740;28;20700;-66
2024/01/03 06:17:31;;;;;;;1.40;0.90;;;;;;;8.81;77.48;94764.72;5084647;28;20416;-66
2024/01/03 06:19:57;;;;;;;2.40;0.90;;;;;;;8.83;77.87;94765.44;5069093;28;20436;-66
2024/01/03 06:22:22;;;;;;;1.10;0.80;;;;;;;8.78;77.74;94767.50;5069094;28;20178;-66
2024/01/03 06:24:47;;;;;;;2.90;0.70;;;;;;;8.83;77.47;94765.44;5068791;28;20198;-67
2024/01/03 06:27:13;;;;;;;1.40;0.87;;;;;;;8.87;76.74;94766.94;5068980;28;20214;-66
2024/01/03 06:29:38;;;;;;;0.90;0.70;;;;;;;8.75;77.50;94762.47;5069196;28;20182;-66
2024/01/03 06:32:04;;;;;;;1.50;0.70;;;;;;;8.75;77.76;94767.72;5070180;28;21007;-69
2024/01/03 06:34:29;;;;;;;0.90;0.70;;;;;;;8.73;77.16;94758.28;5067524;28;20216;-65
2024/01/03 06:36:55;;;;;;;1.20;0.80;;;;;;;8.66;77.17;94750.81;5063450;28;20219;-66
2024/01/03 06:39:20;;;;;;;2.13;0.87;;;;;;;8.69;77.80;94763.72;5065369;28;20254;-67
2024/01/03 06:41:45;;;;;;;1.63;1.00;;;;;;;8.52;77.51;94776.16;5070444;28;20185;-66
2024/01/03 06:44:11;;;;;;;1.33;0.90;;;;;;;8.58;77.68;94776.63;5068517;28;20175;-70
2024/01/03 06:46:36;;;;;;;3.00;1.13;;;;;;;8.54;77.70;94780.34;5050278;28;20202;-66
2024/01/03 06:49:01;;;;;;;2.33;1.20;;;;;;;8.59;77.40;94780.06;5060313;28;20182;-67
2024/01/03 06:51:27;;;;;;;1.43;0.80;;;;;;;8.51;78.31;94777.94;5064176;28;20591;-66
2024/01/03 06:53:52;;;;;;;2.13;0.80;;;;;;;8.43;77.99;94781.03;5072418;28;20182;-67
2024/01/03 06:56:22;;;;;;;2.90;1.13;;;;;;;8.50;78.23;94781.47;5080376;28;20281;-67
2024/01/03 06:58:49;;;;;;;3.10;1.10;;;;;;;8.42;78.16;94791.56;5057635;28;20268;-67
2024/01/03 07:01:15;;;;;;;1.37;1.00;;;;;;;8.53;77.70;94807.44;5055824;28;20513;-68
2024/01/03 07:03:40;;;;;;;1.77;0.83;;;;;;;8.43;77.88;94806.31;5052511;28;20444;-66
2024/01/03 07:06:05;;;;;;;1.10;1.00;;;;;;;8.35;78.21;94803.28;5054194;28;20222;-68
2024/01/03 07:08:31;;;;;;;2.33;0.87;;;;;;;8.32;77.79;94812.16;5067049;28;20173;-66
2024/01/03 07:10:56;;;;;;;1.00;0.77;;;;;;;8.36;77.13;94804.97;5050832;28;20179;-67
2024/01/03 07:13:21;;;;;;;1.63;0.90;;;;;;;8.48;77.52;94820.78;5063007;28;20178;-68
2024/01/03 07:15:47;;;;;;;2.03;1.07;;;;;;;8.48;76.01;94812.13;5053180;28;20364;-68
2024/01/03 07:18:12;;;;;;;1.77;1.10;;;;;;;8.42;76.85;94817.72;5059850;28;20183;-67
2024/01/03 07:20:38;;;;;;;1.40;1.00;;;;;;;8.46;76.37;94804.34;5057252;28;20185;-67
2024/01/03 07:23:03;;;;;;;2.63;1.10;;;;;;;8.55;76.72;94818.66;5053555;28;20261;-69
2024/01/03 07:25:28;;;;;;;2.00;1.23;;;;;;;8.51;77.04;94818.94;5065644;28;20206;-69
2024/01/03 07:27:54;;;;;;;1.40;1.10;;;;;;;8.43;77.14;94824.59;5074791;28;20237;-67
2024/01/03 07:30:21;;;;;;;1.50;1.10;;;;;;;8.52;77.31;94816.19;5065209;28;20308;-66
2024/01/03 07:32:47;;;;;;;3.50;1.37;;;;;;;8.53;76.91;94815.28;5067118;28;20186;-66
2024/01/03 07:35:12;;;;;;;1.20;1.00;;;;;;;8.47;77.22;94815.66;5065924;28;20529;-67
2024/01/03 07:37:38;;;;;;;1.83;1.27;;;;;;;8.57;77.92;94814.13;5065576;28;20182;-67
2024/01/03 07:40:04;;;;;;;1.70;1.00;;;;;;;8.64;77.30;94815.44;5066053;28;20571;-67
2024/01/03 07:42:29;;;;;;;3.70;1.90;;;;;;;8.78;76.64;94819.00;5063018;28;20175;-69
2024/01/03 07:44:55;;;;;;;1.83;1.03;;;;;;;8.75;77.46;94821.81;5065130;28;21264;-68
2024/01/03 07:47:20;;;;;;;1.93;1.53;;;;;;;8.73;78.08;94815.81;5066628;28;20256;-65
2024/01/03 07:49:46;;;;;;;1.47;1.10;;;;;;;8.85;77.71;94810.66;5052976;28;20174;-67
2024/01/03 07:52:11;;;;;;;1.63;1.20;;;;;;;9.06;76.41;94810.25;5073943;28;20179;-67
2024/01/03 07:54:37;;;;;;;3.67;1.33;;;;;;;9.05;76.80;94801.56;5067585;28;20936;-67
2024/01/03 07:57:04;;;;;;;2.30;1.20;;;;;;;9.90;73.53;94801.31;5054001;28;20174;-67
2024/01/03 07:59:33;;;;;;;1.47;1.03;;;;;;;9.85;73.19;94801.63;5079479;28;20171;-68
2024/01/03 08:01:59;;;;;;;2.80;1.40;;;;;;;10.37;71.03;94799.91;5065369;28;20432;-67
2024/01/03 08:04:25;;;;;;;2.07;1.00;;;;;;;9.95;71.85;94801.84;5065607;28;20436;-66
2024/01/03 08:06:51;;;;;;;5.60;1.50;;;;;;;9.74;72.96;94798.88;5068522;28;20287;-66
2024/01/03 08:09:16;;;;;;;3.50;1.10;;;;;;;9.67;73.23;94802.84;5061828;28;20432;-67
2024/01/03 08:11:42;;;;;;;4.30;1.33;;;;;;;9.62;74.01;94794.44;5064003;28;20638;-67
2024/01/03 08:14:07;;;;;;;5.53;2.07;;;;;;;9.43;74.12;94794.81;5061501;28;20174;-67
2024/01/03 08:16:32;;;;;;;1.93;1.37;;;;;;;9.54;73.71;94792.31;5067801;28;20181;-67
2024/01/03 08:18:58;;;;;;;4.20;1.63;;;;;;;9.42;74.18;94793.13;5068462;28;20194;-68
2024/01/03 08:21:23;;;;;;;6.23;1.80;;;;;;;9.38;74.54;94786.38;5069116;28;20177;-67
2024/01/03 08:23:48;;;;;;;2.60;1.23;;;;;;;9.68;73.09;94779.13;5076393;28;20209;-69
2024/01/03 08:26:14;;;;;;;2.80;1.13;;;;;;;11.79;65.70;94780.16;5072043;28;20283;-66
2024/01/03 08:28:41;;;;;;;5.43;1.20;;;;;;;13.60;58.04;94768.66;5091370;28;20277;-67
2024/01/03 08:31:17;;;;;;;2.17;1.53;;;;;;;14.94;53.63;94760.03;5080306;28;20638;-66
2024/01/03 08:33:44;;;;;;;1.60;1.17;;;;;;;15.70;50.45;94767.41;5066808;28;20461;-66
2024/01/03 08:36:14;;;;;;;2.00;1.10;;;;;;;16.49;48.52;94761.94;5066290;28;20453;-67
2024/01/03 08:38:40;;;;;;;2.73;1.40;;;;;;;16.82;47.38;94767.69;5064903;28;20461;-68
2024/01/03 08:41:14;;;;;;;3.30;1.57;;;;;;;16.75;47.47;94774.50;5072075;28;20447;-68
2024/01/03 08:43:40;;;;;;;2.50;1.40;;;;;;;17.29;45.71;94770.25;5071614;28;20203;-67
2024/01/03 08:46:05;;;;;;;2.90;1.20;;;;;;;16.26;46.74;94762.25;5055429;28;22022;-68
2024/01/03 08:48:31;;;;;;;1.97;1.10;;;;;;;16.83;45.90;94770.19;5061667;28;20238;-68
2024/01/03 08:50:57;;;;;;;1.60;0.80;;;;;;;16.19;47.11;94758.50;5061444;28;20201;-68
2024/01/03 08:53:22;;;;;;;3.40;1.40;;;;;;;14.63;51.48;94780.34;5065136;28;20416;-68
2024/01/03 08:55:47;;;;;;;6.60;1.77;;;;;;;16.44;46.83;94759.72;5056474;28;20640;-68
2024/01/03 08:58:13;;;;;;;3.87;1.60;;;;;;;17.53;44.44;94751.97;5062928;28;20886;-67
2024/01/03 09:00:42;;;;;;;3.20;1.30;;;;;;;18.47;41.93;94749.78;5056443;28;20240;-68
2024/01/03 09:03:07;;;;;;;3.60;1.57;;;;;;;19.08;39.86;94755.97;5061939;28;20197;-68
2024/01/03 09:05:33;;;;;;;3.20;1.30;;;;;;;18.40;41.56;94766.34;5071295;28;20451;-69
2024/01/03 09:07:58;;;;;;;4.23;1.37;;;;;;;17.18;44.24;94763.34;5062667;28;20708;-69
2024/01/03 09:10:24;;;;;;;2.40;1.20;;;;;;;17.79;42.14;94748.56;5069734;28;20209;-67
2024/01/03 09:12:49;;;;;;;3.97;1.27;;;;;;;15.98;46.19;94744.59;5060180;28;20258;-68
2024/01/03 09:15:15;;;;;;;4.33;1.73;;;;;;;14.70;49.90;94760.38;5073999;28;20220;-66
2024/01/03 09:17:43;;;;;;;6.43;1.30;;;;;;;14.36;51.25;94772.00;5061930;28;20182;-68
2024/01/03 09:20:12;;;;;;;6.47;1.47;;;;;;;14.67;51.24;94777.31;5071503;28;20169;-66
2024/01/03 09:22:38;;;;;;;5.37;1.40;;;;;;;15.38;48.79;94781.72;5054046;28;20448;-68
2024/01/03 09:25:04;;;;;;;6.43;1.40;;;;;;;14.49;51.15;94777.06;5076863;28;20444;-68
2024/01/03 09:27:29;;;;;;;3.90;1.37;;;;;;;13.66;53.36;94785.78;5079579;28;20452;-67
2024/01/03 09:29:55;;;;;;;3.33;1.60;;;;;;;13.15;54.92;94789.81;5084281;28;20272;-67
2024/01/03 09:32:20;;;;;;;3.07;1.30;;;;;;;12.58;56.89;94791.66;5071813;28;20189;-69
2024/01/03 09:34:46;;;;;;;2.70;1.60;;;;;;;12.42;57.23;94791.16;5052662;28;20264;-70
2024/01/03 09:37:11;;;;;;;2.63;1.50;;;;;;;12.08;58.29;94799.00;5077803;28;20182;-68
2024/01/03 09:39:36;;;;;;;3.07;1.90;;;;;;;11.95;59.13;94795.63;5074588;28;20305;-68
2024/01/03 09:42:03;;;;;;;3.67;1.80;;;;;;;11.93;58.07;94805.41;5078967;28;20178;-67
2024/01/03 09:44:29;;;;;;;2.57;1.63;;;;;;;11.89;58.20;94793.47;5077703;28;20202;-68
2024/01/03 09:46:54;;;;;;;4.17;2.43;;;;;;;11.71;58.81;94806.13;5071020;28;20465;-67
2024/01/03 09:49:20;;;;;;;1.83;1.10;;;;;;;11.68;59.02;94803.75;5077397;28;20792;-68
2024/01/03 09:51:47;;;;;;;3.80;1.20;;;;;;;11.66;59.74;94795.97;5073288;28;20182;-67
2024/01/03 09:54:12;;;;;;;2.50;1.20;;;;;;;11.78;57.64;94800.31;5079554;28;20178;-65
2024/01/03 09:56:40;;;;;;;1.90;1.13;;;;;;;11.69;57.11;94798.34;5064581;28;20433;-67
2024/01/03 09:59:08;;;;;;;3.10;1.20;;;;;;;11.74;57.56;94790.13;5080351;28;20205;-67
2024/01/03 10:01:34;;;;;;;2.90;1.50;;;;;;;11.77;58.26;94797.81;5081078;28;20423;-67
2024/01/03 10:03:59;;;;;;;3.40;1.67;;;;;;;11.95;57.34;94790.34;5066124;28;20433;-67
2024/01/03 10:06:26;;;;;;;2.87;1.47;;;;;;;11.95;56.89;94793.84;5073479;28;20560;-67
2024/01/03 10:09:02;;;;;;;3.63;1.40;;;;;;;11.75;57.61;94791.81;5067835;28;20173;-67
2024/01/03 10:11:27;;;;;;;3.10;1.20;;;;;;;11.75;57.68;94786.56;5072848;28;20499;-68
2024/01/03 10:13:54;;;;;;;2.57;1.30;;;;;;;11.66;58.73;94786.28;5084615;28;20498;-68
2024/01/03 10:16:27;;;;;;;2.10;1.27;;;;;;;12.24;56.19;94777.66;5067872;28;20275;-66
2024/01/03 10:19:09;;;;;;;4.27;1.67;;;;;;;12.44;55.89;94779.56;5070160;28;20870;-68
2024/01/03 10:21:45;;;;;;;4.37;1.30;;;;;;;12.24;55.74;94772.41;5072113;28;20411;-68
2024/01/03 10:24:11;;;;;;;2.13;1.30;;;;;;;12.23;55.93;94768.06;5072012;28;20443;-68
2024/01/03 10:26:36;;;;;;;4.70;1.70;;;;;;;12.05;55.62;94760.63;5080077;28;20459;-66
2024/01/03 10:29:09;;;;;;;6.30;1.30;;;;;;;11.90;56.67;94771.47;5069595;28;20196;-68
2024/01/03 10:31:34;;;;;;;6.90;1.70;;;;;;;11.72;57.55;94768.41;5070582;28;20197;-68
2024/01/03 10:34:00;;;;;;;3.33;1.23;;;;;;;11.58;56.98;94759.75;5073605;28;20455;-67
2024/01/03 10:36:26;;;;;;;2.30;1.17;;;;;;;11.51;57.01;94776.94;5069389;28;20953;-69
2024/01/03 10:38:54;;;;;;;1.40;1.00;;;;;;;11.45;56.23;94759.81;5068039;28;20938;-68
2024/01/03 10:41:20;;;;;;;3.10;1.30;;;;;;;11.45;56.36;94751.09;5073544;28;20988;-67
2024/01/03 10:43:46;;;;;;;3.80;1.30;;;;;;;11.36;57.53;94764.91;5071103;28;20436;-66
2024/01/03 10:46:12;;;;;;;2.83;1.27;;;;;;;11.48;56.43;94757.91;5065654;28;20202;-66
2024/01/03 10:48:38;;;;;;;4.20;1.33;;;;;;;11.42;56.25;94762.66;5071940;28;20600;-68
2024/01/03 10:51:09;;;;;;;4.00;1.43;;;;;;;11.42;57.69;94769.72;5059881;28;20443;-65
2024/01/03 10:53:37;;;;;;;2.70;1.10;;;;;;;11.32;56.60;94763.47;5078379;28;20537;-67
2024/01/03 10:56:03;;;;;;;3.67;1.57;;;;;;;11.31;57.31;94757.34;5072567;28;20447;-66
2024/01/03 10:58:28;;;;;;;4.50;2.20;;;;;;;11.37;56.90;94769.22;5083739;28;20855;-67
2024/01/03 11:01:23;;;;;;;1.87;1.10;;;;;;;11.51;56.29;94761.16;5069676;28;20178;-69
2024/01/03 11:04:40;;;;;;;3.10;1.43;;;;;;;11.34;57.16;94756.28;5065122;28;20196;-66
2024/01/03 11:07:13;;;;;;;3.50;1.33;;;;;;;11.39;58.00;94764.69;5054310;28;21139;-66
2024/01/03 11:09:39;;;;;;;2.17;1.67;;;;;;;11.37;57.67;94764.78;5069699;28;20517;-65
2024/01/03 11:12:06;;;;;;;5.10;1.43;;;;;;;11.34;57.54;94777.31;5069969;28;20444;-65
2024/01/03 11:14:32;;;;;;;3.37;1.30;;;;;;;11.31;58.51;94783.63;5069595;28;20170;-64
2024/01/03 11:16:57;;;;;;;6.13;1.70;;;;;;;11.23;58.29;94788.59;5069736;28;20416;-67
2024/01/03 11:19:28;;;;;;;4.10;1.60;;;;;;;11.26;59.47;94783.13;5069663;28;20186;-65
2024/01/03 11:21:53;;;;;;;5.40;2.37;;;;;;;11.38;59.20;94795.34;5069675;28;20178;-65
2024/01/03 11:24:18;;;;;;;4.63;1.50;;;;;;;11.22;57.92;94794.81;5067398;28;20413;-66
2024/01/03 11:26:53;;;;;;;2.27;1.03;;;;;;;11.10;58.52;94809.66;5068371;28;20198;-67
2024/01/03 11:29:33;;;;;;;2.80;1.20;;;;;;;11.05;59.27;94793.38;5067441;28;20663;-67
2024/01/03 11:31:59;;;;;;;4.23;1.53;;;;;;;11.13;59.13;94790.22;5066956;28;20408;-67
2024/01/03 11:34:41;;;;;;;1.50;1.07;;;;;;;11.29;58.64;94777.66;5068007;28;20412;-67
2024/01/03 11:37:27;;;;;;;2.00;1.20;;;;;;;11.61;57.23;94780.53;5068605;28;20738;-67